createdAt,value
2022-08-19T00:01:59.365Z,6.10
2022-08-19T00:04:32.055Z,5.33
2022-08-19T00:07:02.404Z,6.20
2022-08-19T00:09:31.610Z,5.30
2022-08-19T00:12:01.387Z,5.07
2022-08-19T00:14:32.658Z,5.53
2022-08-19T00:17:02.307Z,5.77
2022-08-19T00:19:31.052Z,5.13
2022-08-19T00:21:59.547Z,5.53
2022-08-19T00:24:29.757Z,5.63
2022-08-19T00:27:04.908Z,5.70
2022-08-19T00:29:46.919Z,5.67
2022-08-19T00:32:21.896Z,6.20
2022-08-19T00:34:50.281Z,6.20
2022-08-19T00:37:19.118Z,5.30
2022-08-19T00:39:49.215Z,5.23
2022-08-19T00:42:17.857Z,5.60
2022-08-19T00:44:46.416Z,5.90
2022-08-19T00:47:15.350Z,5.40
2022-08-19T00:49:52.309Z,5.60
2022-08-19T00:52:24.815Z,5.00
2022-08-19T00:54:55.281Z,6.10
2022-08-19T00:57:30.211Z,5.77
2022-08-19T01:00:03.083Z,5.80
2022-08-19T01:02:33.144Z,6.23
2022-08-19T01:05:04.254Z,5.77
2022-08-19T01:07:35.915Z,5.50
2022-08-19T01:10:11.221Z,5.70
2022-08-19T01:12:40.627Z,5.50
2022-08-19T01:15:11.899Z,5.90
2022-08-19T01:17:41.961Z,5.47
2022-08-19T01:20:14.378Z,5.97
2022-08-19T01:22:47.091Z,6.17
2022-08-19T01:25:16.728Z,6.00
2022-08-19T01:27:48.565Z,5.80
2022-08-19T01:30:20.537Z,6.00
2022-08-19T01:32:49.185Z,5.70
2022-08-19T01:35:19.190Z,7.43
2022-08-19T01:37:52.187Z,5.47
2022-08-19T01:40:22.313Z,6.27
2022-08-19T01:42:51.018Z,6.10
2022-08-19T01:45:19.999Z,6.53
2022-08-19T01:47:57.641Z,6.77
2022-08-19T01:50:31.585Z,5.50
2022-08-19T01:53:06.718Z,6.00
2022-08-19T01:55:40.813Z,5.77
2022-08-19T01:58:12.450Z,5.80
2022-08-19T02:00:40.941Z,6.10
2022-08-19T02:03:10.360Z,6.20
2022-08-19T02:05:40.771Z,6.27
2022-08-19T02:08:11.523Z,5.93
2022-08-19T02:10:42.635Z,9.17
2022-08-19T02:13:12.159Z,5.90
2022-08-19T02:15:40.972Z,6.23
2022-08-19T02:18:09.984Z,6.20
2022-08-19T02:20:39.628Z,6.47
2022-08-19T02:23:13.580Z,5.57
2022-08-19T02:25:47.456Z,5.83
2022-08-19T02:28:18.768Z,5.80
2022-08-19T02:30:49.235Z,6.30
2022-08-19T02:33:18.575Z,6.03
2022-08-19T02:35:48.866Z,5.70
2022-08-19T02:38:29.334Z,6.13
2022-08-19T02:41:01.953Z,5.80
2022-08-19T02:43:34.383Z,5.40
2022-08-19T02:46:03.945Z,6.23
2022-08-19T02:48:33.915Z,5.70
2022-08-19T02:51:02.419Z,5.90
2022-08-19T02:53:30.964Z,5.17
2022-08-19T02:56:00.765Z,5.67
2022-08-19T02:58:29.185Z,5.97
2022-08-19T03:00:59.415Z,5.77
2022-08-19T03:03:28.006Z,5.67
2022-08-19T03:06:06.895Z,6.50
2022-08-19T03:08:35.507Z,6.60
2022-08-19T03:11:06.023Z,5.67
2022-08-19T03:13:34.699Z,5.87
2022-08-19T03:16:07.111Z,6.67
2022-08-19T03:18:35.459Z,5.27
2022-08-19T03:21:03.940Z,5.63
2022-08-19T03:23:32.258Z,5.43
2022-08-19T03:26:15.783Z,6.13
2022-08-19T03:28:57.832Z,5.03
2022-08-19T03:31:45.626Z,6.27
2022-08-19T03:34:20.667Z,6.13
2022-08-19T03:36:49.905Z,6.20
2022-08-19T03:39:19.064Z,7.60
2022-08-19T03:41:50.111Z,7.83
2022-08-19T03:44:39.880Z,6.30
2022-08-19T03:47:08.636Z,6.90
2022-08-19T03:49:37.653Z,6.20
2022-08-19T03:52:08.591Z,6.90
2022-08-19T03:54:39.109Z,6.50
2022-08-19T03:57:08.321Z,6.53
2022-08-19T03:59:38.195Z,5.90
2022-08-19T04:02:12.398Z,6.57
2022-08-19T04:04:42.501Z,6.03
2022-08-19T04:07:12.606Z,6.60
2022-08-19T04:09:41.024Z,6.30
2022-08-19T04:12:10.099Z,6.63
2022-08-19T04:14:38.667Z,7.00
2022-08-19T04:17:08.671Z,7.53
2022-08-19T04:19:38.290Z,5.80
2022-08-19T04:22:07.821Z,8.30
2022-08-19T04:24:37.355Z,6.20
2022-08-19T04:27:07.094Z,6.70
2022-08-19T04:29:36.022Z,7.33
2022-08-19T04:32:09.098Z,6.73
2022-08-19T04:35:02.372Z,6.50
2022-08-19T04:37:35.294Z,5.20
2022-08-19T04:40:24.413Z,6.20
2022-08-19T04:42:53.162Z,6.30
2022-08-19T04:45:23.083Z,7.30
2022-08-19T04:47:58.243Z,6.20
2022-08-19T04:50:29.805Z,7.20
2022-08-19T04:52:58.167Z,7.53
2022-08-19T04:55:27.579Z,7.93
2022-08-19T04:57:56.604Z,7.07
2022-08-19T05:00:25.339Z,6.80
2022-08-19T05:02:53.947Z,7.07
2022-08-19T05:05:22.500Z,8.43
2022-08-19T05:07:52.359Z,8.73
2022-08-19T05:10:21.587Z,8.17
2022-08-19T05:12:50.067Z,8.80
2022-08-19T05:15:19.835Z,7.73
2022-08-19T05:18:02.356Z,7.23
2022-08-19T05:20:48.443Z,9.00
2022-08-19T05:23:22.167Z,7.50
2022-08-19T05:25:52.642Z,9.37
2022-08-19T05:28:21.558Z,10.00
2022-08-19T05:30:51.997Z,10.10
2022-08-19T05:33:20.718Z,9.03
2022-08-19T05:35:50.402Z,11.70
2022-08-19T05:38:21.198Z,9.10
2022-08-19T05:40:50.401Z,8.30
2022-08-19T05:43:18.822Z,10.20
2022-08-19T05:45:47.625Z,9.93
2022-08-19T05:48:21.477Z,9.80
2022-08-19T05:50:51.212Z,10.57
2022-08-19T05:53:21.379Z,11.40
2022-08-19T05:55:50.000Z,9.00
2022-08-19T05:58:18.624Z,8.83
2022-08-19T06:00:51.606Z,10.90
2022-08-19T06:03:20.072Z,11.10
2022-08-19T06:05:51.734Z,9.17
2022-08-19T06:08:33.675Z,10.27
2022-08-19T06:11:16.213Z,10.43
2022-08-19T06:13:46.045Z,8.97
2022-08-19T06:16:14.638Z,11.03
2022-08-19T06:18:45.348Z,9.77
2022-08-19T06:21:13.798Z,9.20
2022-08-19T06:23:44.066Z,10.83
2022-08-19T06:26:14.995Z,10.00
2022-08-19T06:28:47.366Z,14.97
2022-08-19T06:31:17.882Z,11.17
2022-08-19T06:33:47.312Z,11.23
2022-08-19T06:36:20.669Z,11.33
2022-08-19T06:38:55.165Z,10.20
2022-08-19T06:41:23.653Z,11.20
2022-08-19T06:43:54.205Z,9.70
2022-08-19T06:46:25.510Z,9.10
2022-08-19T06:48:57.417Z,9.30
2022-08-19T06:51:27.083Z,12.20
2022-08-19T06:54:00.352Z,12.50
2022-08-19T06:56:34.663Z,12.10
2022-08-19T06:59:04.984Z,10.77
2022-08-19T07:01:38.597Z,11.10
2022-08-19T07:04:08.411Z,15.33
2022-08-19T07:06:44.086Z,13.37
2022-08-19T07:09:18.630Z,12.27
2022-08-19T07:11:48.772Z,14.37
2022-08-19T07:14:20.295Z,16.53
2022-08-19T07:16:50.538Z,20.73
2022-08-19T07:19:21.470Z,20.87
2022-08-19T07:21:51.870Z,24.37
2022-08-19T07:24:24.911Z,25.00
2022-08-19T07:26:55.089Z,22.77
2022-08-19T07:29:25.609Z,20.90
2022-08-19T07:32:00.205Z,26.30
2022-08-19T07:34:31.289Z,24.30
2022-08-19T07:37:00.501Z,22.03
2022-08-19T07:39:33.120Z,25.77
2022-08-19T07:42:04.948Z,19.97
2022-08-19T07:44:35.008Z,20.57
2022-08-19T07:47:04.968Z,20.53
2022-08-19T07:49:33.848Z,20.70
2022-08-19T07:52:04.884Z,18.40
2022-08-19T07:54:37.994Z,16.93
2022-08-19T07:57:07.839Z,14.93
2022-08-19T07:59:37.153Z,13.50
2022-08-19T08:02:06.552Z,13.93
2022-08-19T08:04:54.516Z,12.80
2022-08-19T08:07:40.648Z,11.87
2022-08-19T08:10:21.256Z,10.90
2022-08-19T08:13:09.681Z,10.10
2022-08-19T08:15:43.181Z,10.57
2022-08-19T08:18:12.627Z,11.83
2022-08-19T08:20:43.484Z,13.77
2022-08-19T08:23:26.395Z,9.23
2022-08-19T08:25:58.387Z,12.50
2022-08-19T08:28:29.630Z,10.37
2022-08-19T08:30:59.454Z,10.53
2022-08-19T08:33:33.906Z,11.03
2022-08-19T08:36:06.602Z,13.03
2022-08-19T08:38:39.754Z,16.13
2022-08-19T08:41:20.830Z,13.40
2022-08-19T08:43:52.157Z,11.70
2022-08-19T08:46:32.515Z,12.10
2022-08-19T08:49:13.198Z,12.23
2022-08-19T08:51:44.779Z,12.93
2022-08-19T08:54:20.403Z,12.07
2022-08-19T08:56:53.919Z,10.70
2022-08-19T08:59:27.865Z,12.80
2022-08-19T09:01:57.100Z,11.50
2022-08-19T09:04:25.811Z,10.53
2022-08-19T09:06:59.233Z,10.13
2022-08-19T09:09:36.336Z,12.20
2022-08-19T09:12:16.533Z,12.67
2022-08-19T09:14:51.876Z,14.80
2022-08-19T09:17:32.170Z,13.67
2022-08-19T09:20:09.051Z,13.47
2022-08-19T09:22:38.533Z,12.33
2022-08-19T09:25:09.802Z,13.73
2022-08-19T09:27:53.902Z,13.53
2022-08-19T09:30:25.232Z,13.97
2022-08-19T09:32:55.545Z,13.37
2022-08-19T09:35:31.791Z,14.57
2022-08-19T09:38:01.682Z,16.50
2022-08-19T09:40:36.567Z,16.13
2022-08-19T09:43:11.459Z,15.60
2022-08-19T09:45:42.618Z,17.50
2022-08-19T09:48:11.725Z,14.87
2022-08-19T09:50:51.557Z,14.50
2022-08-19T09:53:25.617Z,13.03
2022-08-19T09:55:57.572Z,12.50
2022-08-19T09:58:29.013Z,12.67
2022-08-19T10:00:58.402Z,12.93
2022-08-19T10:03:29.903Z,13.00
2022-08-19T10:06:01.810Z,12.50
2022-08-19T10:08:32.510Z,13.00
2022-08-19T10:11:28.481Z,11.70
2022-08-19T10:13:52.938Z,11.30
2022-08-19T10:16:25.962Z,12.77
2022-08-19T10:18:59.386Z,13.63
2022-08-19T10:21:32.190Z,11.40
2022-08-19T10:24:04.880Z,14.40
2022-08-19T10:26:38.462Z,12.50
2022-08-19T10:29:09.271Z,12.83
2022-08-19T10:32:00.279Z,13.10
2022-08-19T10:34:28.190Z,14.03
2022-08-19T10:37:00.869Z,13.67
2022-08-19T10:39:32.597Z,11.93
2022-08-19T10:42:06.716Z,14.00
2022-08-19T10:44:37.479Z,15.23
2022-08-19T10:47:17.823Z,13.77
2022-08-19T10:50:12.378Z,13.87
2022-08-19T10:52:49.580Z,13.33
2022-08-19T10:55:38.574Z,12.83
2022-08-19T10:58:13.354Z,13.33
2022-08-19T11:00:44.334Z,12.80
2022-08-19T11:03:13.244Z,12.97
2022-08-19T11:05:42.328Z,13.77
2022-08-19T11:08:22.270Z,14.23
2022-08-19T11:11:00.294Z,14.07
2022-08-19T11:13:29.640Z,12.40
2022-08-19T11:16:07.842Z,13.73
2022-08-19T11:18:38.436Z,12.83
2022-08-19T11:21:18.050Z,14.40
2022-08-19T11:23:47.917Z,13.87
2022-08-19T11:26:17.177Z,15.53
2022-08-19T11:28:45.727Z,15.30
2022-08-19T11:31:18.375Z,17.30
2022-08-19T11:33:48.621Z,16.27
2022-08-19T11:36:18.366Z,18.00
2022-08-19T11:38:49.394Z,16.77
2022-08-19T11:41:19.893Z,16.53
2022-08-19T11:43:49.227Z,17.00
2022-08-19T11:46:21.220Z,16.07
2022-08-19T11:48:50.783Z,14.37
2022-08-19T11:51:21.213Z,16.57
2022-08-19T11:53:53.055Z,14.57
2022-08-19T11:56:23.303Z,15.80
2022-08-19T11:58:51.993Z,15.43
2022-08-19T12:01:24.621Z,12.40
2022-08-19T12:03:55.360Z,13.47
2022-08-19T12:06:26.759Z,13.73
2022-08-19T12:08:55.941Z,12.03
2022-08-19T12:11:25.394Z,13.03
2022-08-19T12:13:54.702Z,12.93
2022-08-19T12:16:27.825Z,14.27
2022-08-19T12:18:59.014Z,11.97
2022-08-19T12:21:29.678Z,13.40
2022-08-19T12:24:01.012Z,12.43
2022-08-19T12:26:32.487Z,13.37
2022-08-19T12:29:02.506Z,12.57
2022-08-19T12:31:33.330Z,11.37
2022-08-19T12:34:02.697Z,10.60
2022-08-19T12:36:31.655Z,12.37
2022-08-19T12:39:01.664Z,13.10
2022-08-19T12:41:30.329Z,12.03
2022-08-19T12:43:59.450Z,11.10
2022-08-19T12:46:29.604Z,11.90
2022-08-19T12:49:00.566Z,13.30
2022-08-19T12:51:34.588Z,13.10
2022-08-19T12:54:06.025Z,11.23
2022-08-19T12:56:35.378Z,11.30
2022-08-19T12:59:05.261Z,10.47
2022-08-19T13:01:33.456Z,12.00
2022-08-19T13:04:02.989Z,13.00
2022-08-19T13:06:31.379Z,11.67
2022-08-19T13:08:59.824Z,11.67
2022-08-19T13:11:33.194Z,11.80
2022-08-19T13:14:02.765Z,12.40
2022-08-19T13:16:31.146Z,11.33
2022-08-19T13:18:59.942Z,11.37
2022-08-19T13:21:30.982Z,11.87
2022-08-19T13:23:59.776Z,11.47
2022-08-19T13:26:27.915Z,11.63
2022-08-19T13:29:13.340Z,10.70
2022-08-19T13:32:00.849Z,10.43
2022-08-19T13:34:32.948Z,11.23
2022-08-19T13:37:06.582Z,9.70
2022-08-19T13:39:37.810Z,11.47
2022-08-19T13:42:07.269Z,11.17
2022-08-19T13:44:35.879Z,10.30
2022-08-19T13:47:08.437Z,8.87
2022-08-19T13:49:37.914Z,10.60
2022-08-19T13:52:07.903Z,8.87
2022-08-19T13:54:36.229Z,8.43
2022-08-19T13:57:04.876Z,9.47
2022-08-19T13:59:33.544Z,7.90
2022-08-19T14:02:02.786Z,8.80
2022-08-19T14:04:31.129Z,8.40
2022-08-19T14:06:59.414Z,8.43
2022-08-19T14:09:29.078Z,7.90
2022-08-19T14:11:57.284Z,8.20
2022-08-19T14:14:27.633Z,13.33
2022-08-19T14:16:55.954Z,7.23
2022-08-19T14:19:24.600Z,7.10
2022-08-19T14:21:58.868Z,7.03
2022-08-19T14:24:28.809Z,6.57
2022-08-19T14:26:57.511Z,6.88
2022-08-19T14:29:25.852Z,6.53
2022-08-19T14:31:54.031Z,6.37
2022-08-19T14:34:23.118Z,5.30
2022-08-19T14:36:51.809Z,6.03
2022-08-19T14:39:20.314Z,6.13
2022-08-19T14:41:49.933Z,6.70
2022-08-19T14:44:18.220Z,5.33
2022-08-19T14:46:49.609Z,4.53
2022-08-19T14:49:19.344Z,4.43
2022-08-19T14:51:47.942Z,5.00
2022-08-19T14:54:16.308Z,4.43
2022-08-19T14:56:44.606Z,5.03
2022-08-19T14:59:14.503Z,4.50
2022-08-19T15:01:42.980Z,4.17
2022-08-19T15:04:11.650Z,4.60
2022-08-19T15:06:40.192Z,4.17
2022-08-19T15:09:08.832Z,4.17
2022-08-19T15:11:38.189Z,3.50
2022-08-19T15:14:07.902Z,4.20
2022-08-19T15:16:39.132Z,3.50
2022-08-19T15:19:07.796Z,4.07
2022-08-19T15:21:37.334Z,4.47
2022-08-19T15:24:07.207Z,4.67
2022-08-19T15:26:35.514Z,4.00
2022-08-19T15:29:05.418Z,3.13
2022-08-19T15:31:38.769Z,3.77
2022-08-19T15:34:09.199Z,3.60
2022-08-19T15:36:38.817Z,3.77
2022-08-19T15:39:07.460Z,4.43
2022-08-19T15:41:37.089Z,3.90
2022-08-19T15:44:10.325Z,3.43
2022-08-19T15:46:40.628Z,3.27
2022-08-19T15:49:12.524Z,2.90
2022-08-19T15:51:43.284Z,4.43
2022-08-19T15:54:13.694Z,3.73
2022-08-19T15:56:59.811Z,3.50
2022-08-19T15:59:49.150Z,5.33
2022-08-19T16:02:37.822Z,3.20
2022-08-19T16:05:29.663Z,4.97
2022-08-19T16:07:59.988Z,3.90
2022-08-19T16:10:28.349Z,3.20
2022-08-19T16:12:57.957Z,3.67
2022-08-19T16:15:28.591Z,3.00
2022-08-19T16:17:58.000Z,3.10
2022-08-19T16:20:31.066Z,3.30
2022-08-19T16:23:00.821Z,3.43
2022-08-19T16:25:30.135Z,3.43
2022-08-19T16:28:07.184Z,4.30
2022-08-19T16:30:39.029Z,3.70
2022-08-19T16:33:08.107Z,3.10
2022-08-19T16:35:38.351Z,3.40
2022-08-19T16:38:07.343Z,3.30
2022-08-19T16:40:36.458Z,2.43
2022-08-19T16:43:05.472Z,3.33
2022-08-19T16:45:34.349Z,3.50
2022-08-19T16:48:17.516Z,2.77
2022-08-19T16:50:49.461Z,2.80
2022-08-19T16:53:22.023Z,2.73
2022-08-19T16:55:53.316Z,3.03
2022-08-19T16:58:28.094Z,2.83
2022-08-19T17:01:03.300Z,2.60
2022-08-19T17:03:37.603Z,2.40
2022-08-19T17:06:18.990Z,2.93
2022-08-19T17:08:50.136Z,2.77
2022-08-19T17:11:19.800Z,3.20
2022-08-19T17:13:49.642Z,3.23
2022-08-19T17:16:19.911Z,2.63
2022-08-19T17:18:52.434Z,3.23
2022-08-19T17:21:21.162Z,3.00
2022-08-19T17:23:50.811Z,2.53
2022-08-19T17:26:19.694Z,2.33
2022-08-19T17:28:50.045Z,2.67
2022-08-19T17:31:20.218Z,3.00
2022-08-19T17:33:51.402Z,2.63
2022-08-19T17:36:23.577Z,2.40
2022-08-19T17:38:52.648Z,5.43
2022-08-19T17:41:21.339Z,3.20
2022-08-19T17:43:49.996Z,4.00
2022-08-19T17:46:19.509Z,2.50
2022-08-19T17:48:52.711Z,2.80
2022-08-19T17:51:23.996Z,4.03
2022-08-19T17:53:54.219Z,2.73
2022-08-19T17:56:23.612Z,4.60
2022-08-19T17:59:00.635Z,2.97
2022-08-19T18:01:43.856Z,2.33
2022-08-19T18:04:21.324Z,3.00
2022-08-19T18:06:53.853Z,3.30
2022-08-19T18:09:30.050Z,2.70
2022-08-19T18:12:11.403Z,3.40
2022-08-19T18:14:42.027Z,3.50
2022-08-19T18:17:12.514Z,3.77
2022-08-19T18:19:44.206Z,2.60
2022-08-19T18:22:22.506Z,3.00
2022-08-19T18:24:52.457Z,4.10
2022-08-19T18:27:21.351Z,2.70
2022-08-19T18:29:49.870Z,3.20
2022-08-19T18:32:23.533Z,2.80
2022-08-19T18:34:56.246Z,3.73
2022-08-19T18:37:27.865Z,3.93
2022-08-19T18:40:14.210Z,2.33
2022-08-19T18:43:04.237Z,2.93
2022-08-19T18:45:50.227Z,2.87
2022-08-19T18:48:35.988Z,2.50
2022-08-19T18:51:06.237Z,3.40
2022-08-19T18:53:37.466Z,2.47
2022-08-19T18:56:06.620Z,2.30
2022-08-19T18:58:35.894Z,1.93
2022-08-19T19:01:13.256Z,2.50
2022-08-19T19:03:45.367Z,2.20
2022-08-19T19:06:19.931Z,2.57
2022-08-19T19:08:48.499Z,2.27
2022-08-19T19:11:24.031Z,2.20
2022-08-19T19:13:52.681Z,2.20
2022-08-19T19:16:24.438Z,2.73
2022-08-19T19:18:53.609Z,2.13
2022-08-19T19:21:25.622Z,2.00
2022-08-19T19:23:55.534Z,2.50
2022-08-19T19:26:24.380Z,2.10
2022-08-19T19:28:52.831Z,3.30
2022-08-19T19:31:23.917Z,2.17
2022-08-19T19:33:52.297Z,2.63
2022-08-19T19:36:22.208Z,1.97
2022-08-19T19:38:50.599Z,2.50
2022-08-19T19:41:23.428Z,1.80
2022-08-19T19:44:10.019Z,1.70
2022-08-19T19:46:42.636Z,1.90
2022-08-19T19:49:11.900Z,2.10
2022-08-19T19:51:42.050Z,2.43
2022-08-19T19:54:14.707Z,2.70
2022-08-19T19:56:45.565Z,2.13
2022-08-19T19:59:14.300Z,3.10
2022-08-19T20:01:46.944Z,1.90
2022-08-19T20:04:16.462Z,2.23
2022-08-19T20:06:46.821Z,2.40
2022-08-19T20:09:19.752Z,1.83
2022-08-19T20:11:50.227Z,1.53
2022-08-19T20:14:24.470Z,2.03
2022-08-19T20:16:54.168Z,2.00
2022-08-19T20:19:26.044Z,1.63
2022-08-19T20:21:57.530Z,1.80
2022-08-19T20:24:32.486Z,2.13
2022-08-19T20:27:01.872Z,2.00
2022-08-19T20:29:40.253Z,2.03
2022-08-19T20:32:10.648Z,2.13
2022-08-19T20:34:39.301Z,1.80
2022-08-19T20:37:09.877Z,1.70
2022-08-19T20:39:38.487Z,1.63
2022-08-19T20:42:07.159Z,2.10
2022-08-19T20:44:35.946Z,3.80
2022-08-19T20:47:04.495Z,1.97
2022-08-19T20:49:33.223Z,1.60
2022-08-19T20:52:01.873Z,1.53
2022-08-19T20:54:31.609Z,1.83
2022-08-19T20:57:00.591Z,3.27
2022-08-19T20:59:29.013Z,2.40
2022-08-19T21:01:57.653Z,1.50
2022-08-19T21:04:26.751Z,2.63
2022-08-19T21:06:55.188Z,4.60
2022-08-19T21:09:23.577Z,2.20
2022-08-19T21:11:53.779Z,1.50
2022-08-19T21:14:22.697Z,2.27
2022-08-19T21:16:51.157Z,1.70
2022-08-19T21:19:23.685Z,1.60
2022-08-19T21:21:52.710Z,1.70
2022-08-19T21:24:21.096Z,1.70
2022-08-19T21:26:51.437Z,1.70
2022-08-19T21:29:21.498Z,1.97
2022-08-19T21:31:50.258Z,1.60
2022-08-19T21:34:19.419Z,1.70
2022-08-19T21:36:47.873Z,1.57
2022-08-19T21:39:16.238Z,1.63
2022-08-19T21:41:44.593Z,1.87
2022-08-19T21:44:12.937Z,2.33
2022-08-19T21:46:42.574Z,1.07
2022-08-19T21:49:10.996Z,1.87
2022-08-19T21:51:39.526Z,1.77
2022-08-19T21:54:07.893Z,1.23
2022-08-19T21:56:42.962Z,1.73
2022-08-19T21:59:11.423Z,2.27
2022-08-19T22:01:39.855Z,3.27
2022-08-19T22:04:10.110Z,1.73
2022-08-19T22:06:38.469Z,2.37
2022-08-19T22:09:08.428Z,1.87
2022-08-19T22:11:37.000Z,1.30
2022-08-19T22:14:05.577Z,1.50
2022-08-19T22:16:36.210Z,1.80
2022-08-19T22:19:06.061Z,1.40
2022-08-19T22:21:40.266Z,2.40
2022-08-19T22:24:10.187Z,1.80
2022-08-19T22:26:38.801Z,3.83
2022-08-19T22:29:07.884Z,1.73
2022-08-19T22:31:37.673Z,2.53
2022-08-19T22:34:07.512Z,1.50
2022-08-19T22:36:37.357Z,1.60
2022-08-19T22:39:06.240Z,1.50
2022-08-19T22:41:34.803Z,2.10
2022-08-19T22:44:03.865Z,1.90
2022-08-19T22:46:33.668Z,1.43
2022-08-19T22:49:02.061Z,1.47
2022-08-19T22:51:47.981Z,1.63
2022-08-19T22:54:18.113Z,2.13
2022-08-19T22:56:46.686Z,2.23
2022-08-19T22:59:15.034Z,1.30
2022-08-19T23:01:43.368Z,2.77
2022-08-19T23:04:11.797Z,1.50
2022-08-19T23:06:42.251Z,1.50
2022-08-19T23:09:16.593Z,1.50
2022-08-19T23:11:47.842Z,3.23
2022-08-19T23:14:17.629Z,1.70
2022-08-19T23:16:50.750Z,1.50
2022-08-19T23:19:20.342Z,2.57
2022-08-19T23:21:48.668Z,1.30
2022-08-19T23:24:16.974Z,2.00
2022-08-19T23:27:00.660Z,1.80
2022-08-19T23:29:46.235Z,2.80
2022-08-19T23:32:19.431Z,1.90
2022-08-19T23:34:48.509Z,2.17
2022-08-19T23:37:20.307Z,2.23
2022-08-19T23:39:50.085Z,2.57
2022-08-19T23:42:20.591Z,1.53
2022-08-19T23:44:52.203Z,1.50
2022-08-19T23:47:21.559Z,2.83
2022-08-19T23:49:50.706Z,1.70
2022-08-19T23:52:19.268Z,1.10
2022-08-19T23:54:47.612Z,1.70
2022-08-19T23:57:16.186Z,1.87
2022-08-19T23:59:46.351Z,1.70
